Time;durP1;ratioP1;P1;durP2;ratioP2;P2;SDS_P1;SDS_P2;PMS_P1;PMS_P2;Temp;Humidity;BMP_temperature;BMP_pressure;BME280_temperature;BME280_humidity;BME280_pressure;Samples;Min_cycle;Max_cycle;Signal;HPM_P1;HPM_P2
2023/12/06 00:03:34;;;;;;;7.95;7.15;;;;;;;2.17;100.00;97764.13;15274834;19;20029;-78
2023/12/06 00:08:59;;;;;;;8.90;8.00;;;;;;;2.17;100.00;97765.94;15280667;19;20477;-78
2023/12/06 00:14:24;;;;;;;8.07;7.28;;;;;;;2.18;100.00;97767.59;15276193;19;20761;-78
2023/12/06 00:19:51;;;;;;;8.15;7.22;;;;;;;2.17;100.00;97765.94;15301829;19;20039;-78
2023/12/06 00:25:17;;;;;;;8.70;6.85;;;;;;;2.17;100.00;97768.59;15290810;19;20015;-79
2023/12/06 00:30:43;;;;;;;9.02;7.32;;;;;;;2.16;100.00;97762.44;15298471;19;20018;-78
2023/12/06 00:36:10;;;;;;;7.68;6.85;;;;;;;2.15;100.00;97764.25;15289598;19;20006;-78
2023/12/06 00:41:35;;;;;;;7.03;6.32;;;;;;;2.13;100.00;97758.22;15296941;19;20006;-78
2023/12/06 00:46:59;;;;;;;7.93;6.30;;;;;;;2.12;100.00;97761.84;15016504;19;5000909;-78
2023/12/06 00:52:27;;;;;;;7.00;6.07;;;;;;;2.11;100.00;97759.31;15294012;19;20015;-78
2023/12/06 00:57:52;;;;;;;7.28;6.38;;;;;;;2.13;100.00;97774.16;15293066;19;20010;-78
2023/12/06 01:03:23;;;;;;;6.63;6.00;;;;;;;2.14;100.00;97778.50;15283364;19;20018;-78
2023/12/06 01:08:51;;;;;;;6.45;5.65;;;;;;;2.18;100.00;97783.56;15293164;19;20369;-78
2023/12/06 01:14:15;;;;;;;6.40;5.80;;;;;;;2.15;100.00;97780.19;15290156;19;20011;-78
2023/12/06 01:19:40;;;;;;;6.30;5.70;;;;;;;2.16;100.00;97781.03;15297910;19;20035;-78
2023/12/06 01:25:09;;;;;;;6.32;5.65;;;;;;;2.16;100.00;97791.66;15293353;19;20022;-78
2023/12/06 01:30:35;;;;;;;6.10;5.50;;;;;;;2.14;100.00;97789.13;15296492;19;20023;-78
2023/12/06 01:36:00;;;;;;;6.25;5.65;;;;;;;2.14;100.00;97791.81;15286393;19;20017;-79
2023/12/06 01:41:27;;;;;;;6.10;5.50;;;;;;;2.13;100.00;97790.09;15304044;19;20421;-78
2023/12/06 01:46:52;;;;;;;6.20;5.60;;;;;;;2.12;100.00;97790.22;15307474;19;20021;-79
2023/12/06 01:52:18;;;;;;;5.85;5.22;;;;;;;2.10;100.00;97793.00;15302182;19;20477;-77
2023/12/06 01:57:45;;;;;;;6.18;5.35;;;;;;;2.08;100.00;97796.75;15289718;19;20015;-79
2023/12/06 02:03:11;;;;;;;6.35;5.60;;;;;;;2.07;100.00;97805.69;15287848;19;20473;-80
2023/12/06 02:08:36;;;;;;;5.80;5.22;;;;;;;2.05;100.00;97795.19;15289046;19;20090;-78
2023/12/06 02:14:04;;;;;;;5.53;5.03;;;;;;;2.05;100.00;97794.34;15281465;19;20376;-78
2023/12/06 02:19:35;;;;;;;5.55;5.05;;;;;;;2.04;100.00;97793.50;15300734;19;20026;-83
2023/12/06 02:25:02;;;;;;;5.40;4.90;;;;;;;2.03;100.00;97802.44;15296436;19;20007;-77
2023/12/06 02:30:29;;;;;;;6.47;4.72;;;;;;;2.03;100.00;97801.59;15283754;19;20022;-81
2023/12/06 02:35:59;;;;;;;4.90;4.28;;;;;;;2.05;100.00;97805.81;15314751;19;20611;-82
2023/12/06 02:41:24;;;;;;;5.45;4.95;;;;;;;2.04;100.00;97808.59;15302264;19;20023;-82
2023/12/06 02:46:52;;;;;;;5.20;4.70;;;;;;;2.02;100.00;97807.84;15270879;19;20090;-78
2023/12/06 02:52:18;;;;;;;4.85;4.35;;;;;;;2.02;100.00;97806.06;15291113;19;20018;-80
2023/12/06 02:57:44;;;;;;;4.88;4.38;;;;;;;2.00;100.00;97800.03;15280711;19;20021;-79
2023/12/06 03:03:11;;;;;;;5.22;4.00;;;;;;;2.00;100.00;97803.50;15280038;19;20006;-82
2023/12/06 03:08:36;;;;;;;4.93;4.35;;;;;;;1.98;100.00;97800.16;15282323;19;20018;-79
2023/12/06 03:14:00;;;;;;;4.50;4.10;;;;;;;1.96;100.00;97795.91;15273389;19;20106;-79
2023/12/06 03:19:27;;;;;;;5.18;4.68;;;;;;;1.95;100.00;97804.84;15282679;19;20035;-79
2023/12/06 03:24:53;;;;;;;4.25;3.88;;;;;;;1.91;100.00;97793.63;15274506;19;20742;-79
2023/12/06 03:30:18;;;;;;;4.75;4.35;;;;;;;1.89;100.00;97800.03;15280179;19;20088;-79
2023/12/06 03:35:55;;;;;;;4.50;4.10;;;;;;;1.83;100.00;97799.53;15278527;19;20032;-79
2023/12/06 03:41:26;;;;;;;4.53;4.13;;;;;;;1.83;100.00;97812.00;15288507;19;20376;-79
2023/12/06 03:46:52;;;;;;;4.35;3.95;;;;;;;1.83;100.00;97804.84;15300342;19;20633;-78
2023/12/06 03:52:19;;;;;;;4.40;4.00;;;;;;;1.85;100.00;97810.91;15277908;19;20021;-80
2023/12/06 03:57:44;;;;;;;3.97;3.60;;;;;;;1.85;100.00;97807.41;15288803;19;20050;-80
2023/12/06 04:03:15;;;;;;;3.88;3.58;;;;;;;1.87;100.00;97809.94;15277018;19;20017;-80
2023/12/06 04:08:42;;;;;;;4.07;3.70;;;;;;;1.87;100.00;97812.59;15283471;19;20622;-80
2023/12/06 04:14:08;;;;;;;3.90;3.60;;;;;;;1.85;100.00;97816.22;15286506;19;20081;-79
2023/12/06 04:19:33;;;;;;;4.43;4.03;;;;;;;1.83;100.00;97822.63;15308977;19;20250;-80
2023/12/06 04:25:07;;;;;;;3.70;3.40;;;;;;;1.82;100.00;97816.44;15297701;19;20508;-78
2023/12/06 04:30:33;;;;;;;3.85;3.55;;;;;;;1.80;100.00;97822.84;15286184;19;20086;-80
2023/12/06 04:35:57;;;;;;;4.28;3.88;;;;;;;1.76;100.00;97832.88;15277596;19;20074;-78
2023/12/06 04:41:24;;;;;;;4.82;4.43;;;;;;;1.73;100.00;97838.41;15278890;19;20010;-80
2023/12/06 04:46:49;;;;;;;4.25;3.85;;;;;;;1.68;100.00;97836.13;15280640;19;20014;-79
2023/12/06 04:52:14;;;;;;;3.95;3.65;;;;;;;1.66;100.00;97834.56;15273671;19;20475;-78
2023/12/06 04:57:41;;;;;;;3.88;3.58;;;;;;;1.65;100.00;97831.03;15285238;19;20031;-82
2023/12/06 05:03:12;;;;;;;3.05;2.75;;;;;;;1.63;100.00;97832.13;15284979;19;20070;-84
2023/12/06 05:08:38;;;;;;;2.70;2.50;;;;;;;1.64;100.00;97841.78;15291103;19;20434;-82
2023/12/06 05:14:05;;;;;;;2.60;2.40;;;;;;;1.62;100.00;97847.25;15288099;19;20022;-82
2023/12/06 05:19:30;;;;;;;3.80;2.45;;;;;;;1.57;100.00;97860.00;15297935;19;20010;-81
2023/12/06 05:24:55;;;;;;;2.45;2.25;;;;;;;1.55;100.00;97848.66;15287147;19;20392;-81
2023/12/06 05:30:22;;;;;;;2.25;2.00;;;;;;;1.53;100.00;97851.44;15304273;19;20031;-81
2023/12/06 05:35:47;;;;;;;2.40;2.20;;;;;;;1.52;100.00;97849.75;15312754;19;20373;-81
2023/12/06 05:41:13;;;;;;;2.47;2.28;;;;;;;1.50;100.00;97854.31;15318333;19;20026;-78
2023/12/06 05:46:41;;;;;;;2.35;2.15;;;;;;;1.51;100.00;97863.97;15292901;19;20099;-77
2023/12/06 05:52:07;;;;;;;2.30;2.10;;;;;;;1.50;100.00;97859.63;15294617;19;20036;-77
2023/12/06 05:57:32;;;;;;;2.20;2.10;;;;;;;1.50;100.00;97870.25;15288040;19;20017;-79
2023/12/06 06:03:00;;;;;;;2.75;2.47;;;;;;;1.51;100.00;97871.94;15289175;19;20015;-76
2023/12/06 06:08:26;;;;;;;2.63;2.42;;;;;;;1.50;100.00;97875.56;15287940;19;20017;-77
2023/12/06 06:13:52;;;;;;;2.10;2.00;;;;;;;1.51;100.00;97881.72;15286914;19;20086;-78
2023/12/06 06:19:20;;;;;;;2.30;2.10;;;;;;;1.53;100.00;97882.44;15280111;19;20018;-79
2023/12/06 06:24:45;;;;;;;2.60;2.40;;;;;;;1.52;100.00;97886.91;15278002;19;20018;-78
2023/12/06 06:30:10;;;;;;;2.70;2.42;;;;;;;1.54;100.00;97890.31;15280509;19;20018;-77
2023/12/06 06:35:38;;;;;;;3.78;2.30;;;;;;;1.54;100.00;97892.97;15278051;19;20018;-78
2023/12/06 06:41:02;;;;;;;2.55;2.30;;;;;;;1.54;100.00;97903.56;15298812;19;20054;-78
2023/12/06 06:46:27;;;;;;;2.40;2.20;;;;;;;1.52;100.00;97915.28;15280440;19;20016;-78
2023/12/06 06:51:54;;;;;;;2.42;2.22;;;;;;;1.50;100.00;97923.34;15287301;19;20465;-78
2023/12/06 06:57:19;;;;;;;2.50;2.30;;;;;;;1.49;100.00;97932.28;15278651;19;20094;-78
2023/12/06 07:02:43;;;;;;;2.60;2.40;;;;;;;1.48;100.00;97930.56;15291441;19;20887;-78
2023/12/06 07:08:13;;;;;;;2.53;2.33;;;;;;;1.47;100.00;97939.50;15310270;19;20002;-78
2023/12/06 07:13:37;;;;;;;2.70;2.28;;;;;;;1.46;100.00;97944.94;15298899;19;20552;-78
2023/12/06 07:19:02;;;;;;;2.13;1.90;;;;;;;1.46;100.00;97952.91;15297735;19;20094;-79
2023/12/06 07:24:29;;;;;;;2.10;1.98;;;;;;;1.46;100.00;97959.06;15293272;19;20025;-78
2023/12/06 07:29:54;;;;;;;1.83;1.58;;;;;;;1.45;100.00;97962.69;15291044;19;20027;-78
2023/12/06 07:35:19;;;;;;;1.60;1.50;;;;;;;1.45;100.00;97968.00;15281219;19;20343;-79
2023/12/06 07:40:47;;;;;;;1.80;1.70;;;;;;;1.45;100.00;97972.44;15282881;19;20466;-78
2023/12/06 07:46:12;;;;;;;1.60;1.50;;;;;;;1.46;100.00;97980.31;15288805;19;20700;-78
2023/12/06 07:51:37;;;;;;;1.83;1.73;;;;;;;1.50;100.00;97984.41;15288630;19;20010;-78
2023/12/06 07:57:04;;;;;;;1.77;1.67;;;;;;;1.52;100.00;97995.75;15285388;19;20079;-78
2023/12/06 08:02:29;;;;;;;1.70;1.60;;;;;;;1.56;100.00;97990.22;15279114;19;20054;-80
2023/12/06 08:08:00;;;;;;;1.80;1.70;;;;;;;1.62;100.00;98000.38;15284024;19;20027;-78
2023/12/06 08:13:29;;;;;;;1.95;1.70;;;;;;;1.67;100.00;97998.22;15028243;19;5001717;-78
2023/12/06 08:18:53;;;;;;;1.60;1.50;;;;;;;1.76;100.00;98002.84;15281265;19;20365;-78
2023/12/06 08:24:20;;;;;;;1.70;1.60;;;;;;;1.84;100.00;98008.41;15277782;19;20014;-78
2023/12/06 08:29:48;;;;;;;1.80;1.60;;;;;;;1.94;100.00;98016.53;15278549;19;20039;-78
2023/12/06 08:35:13;;;;;;;1.40;1.30;;;;;;;2.05;100.00;98033.47;15272515;19;20089;-78
2023/12/06 08:40:37;;;;;;;1.30;1.20;;;;;;;2.11;100.00;98035.69;15281453;19;20058;-79
2023/12/06 08:46:06;;;;;;;1.60;1.50;;;;;;;2.20;100.00;98034.09;15283260;19;20066;-79
2023/12/06 08:51:31;;;;;;;1.40;1.30;;;;;;;2.22;100.00;98042.81;15280012;19;20023;-80
2023/12/06 08:56:56;;;;;;;1.08;1.08;;;;;;;2.27;100.00;98044.16;15275746;19;20041;-78
2023/12/06 09:02:24;;;;;;;1.50;1.35;;;;;;;2.27;100.00;98043.31;15281258;19;20477;-80
2023/12/06 09:07:55;;;;;;;1.30;1.20;;;;;;;2.26;100.00;98046.94;15280682;19;21140;-78
2023/12/06 09:13:20;;;;;;;0.95;0.93;;;;;;;2.25;100.00;98050.56;15282976;19;20046;-79
2023/12/06 09:18:47;;;;;;;1.92;1.05;;;;;;;2.27;100.00;98053.94;15273069;19;20024;-79
2023/12/06 09:24:13;;;;;;;1.20;1.10;;;;;;;2.23;100.00;98060.44;15277420;19;20023;-79
2023/12/06 09:29:39;;;;;;;1.40;1.30;;;;;;;2.26;100.00;98068.19;15279156;19;20002;-79
2023/12/06 09:35:08;;;;;;;1.90;1.35;;;;;;;2.23;100.00;98066.63;15004683;19;5002224;-78
2023/12/06 09:40:33;;;;;;;1.63;1.20;;;;;;;2.23;100.00;98060.44;15263195;19;20018;-80
2023/12/06 09:45:58;;;;;;;1.05;1.05;;;;;;;2.25;100.00;98064.66;15274346;19;20018;-78
2023/12/06 09:51:26;;;;;;;1.10;1.10;;;;;;;2.26;100.00;98060.22;15274506;19;20479;-79
2023/12/06 09:56:51;;;;;;;1.15;1.15;;;;;;;2.31;100.00;98060.69;15272580;19;20074;-79
2023/12/06 10:02:17;;;;;;;1.92;1.50;;;;;;;2.32;100.00;98067.72;15290803;19;20062;-80
2023/12/06 10:07:52;;;;;;;1.60;1.50;;;;;;;2.38;100.00;98069.03;15286892;19;20035;-79
2023/12/06 10:13:10;;;;;;;1.60;1.50;;;;;;;2.43;100.00;98081.03;15285247;19;20014;-78
2023/12/06 10:18:36;;;;;;;1.50;1.40;;;;;;;2.46;100.00;98080.78;15290338;19;20090;-80
2023/12/06 10:24:07;;;;;;;1.52;1.42;;;;;;;2.51;100.00;98080.44;15284579;19;20078;-79
2023/12/06 10:29:33;;;;;;;1.30;1.20;;;;;;;2.55;100.00;98081.03;15288822;19;20010;-81
2023/12/06 10:34:59;;;;;;;1.35;1.25;;;;;;;2.62;100.00;98084.94;15281191;19;20380;-79
2023/12/06 10:40:28;;;;;;;1.30;1.20;;;;;;;2.68;100.00;98072.97;15287507;19;20050;-79
2023/12/06 10:45:57;;;;;;;2.58;1.10;;;;;;;2.69;100.00;98078.16;15278564;19;20050;-80
2023/12/06 10:51:23;;;;;;;1.60;1.50;;;;;;;2.70;100.00;98065.72;15287478;19;20007;-80
2023/12/06 10:56:52;;;;;;;2.10;1.90;;;;;;;2.72;100.00;98069.94;15289021;19;20006;-78
2023/12/06 11:02:19;;;;;;;1.70;1.60;;;;;;;2.80;100.00;98071.16;15288291;19;20093;-78
2023/12/06 11:08:07;;;;;;;2.22;1.70;;;;;;;2.85;100.00;98075.13;15322048;19;20466;-79
2023/12/06 11:13:48;;;;;;;2.47;1.70;;;;;;;2.84;100.00;98064.63;15322884;19;20066;-79
2023/12/06 11:19:14;;;;;;;1.80;1.67;;;;;;;2.81;100.00;98062.19;15289645;19;20013;-78
2023/12/06 11:24:39;;;;;;;1.60;1.50;;;;;;;2.77;100.00;98057.13;15281398;19;20275;-78
2023/12/06 11:30:07;;;;;;;2.55;1.80;;;;;;;2.72;100.00;98053.97;15285469;19;20093;-79
2023/12/06 11:35:44;;;;;;;3.42;1.55;;;;;;;2.68;100.00;98057.84;15276994;19;20018;-80
2023/12/06 11:41:10;;;;;;;1.98;1.55;;;;;;;2.67;100.00;98076.59;15279123;19;20010;-79
2023/12/06 11:46:40;;;;;;;1.95;1.75;;;;;;;2.64;100.00;98067.06;15277312;19;20768;-79
2023/12/06 11:52:10;;;;;;;1.75;1.65;;;;;;;2.64;100.00;98067.06;15276711;19;20006;-79
2023/12/06 11:57:35;;;;;;;1.65;1.55;;;;;;;2.65;100.00;98063.41;15277548;19;20010;-80
2023/12/06 12:03:03;;;;;;;3.70;1.80;;;;;;;2.63;100.00;98065.34;15278410;19;20774;-80
2023/12/06 12:08:30;;;;;;;1.70;1.60;;;;;;;2.64;100.00;98067.06;15278536;19;20358;-78
2023/12/06 12:13:57;;;;;;;1.98;1.80;;;;;;;2.63;100.00;98070.66;15272827;19;20417;-79
2023/12/06 12:19:27;;;;;;;2.33;1.90;;;;;;;2.57;100.00;98076.44;15275777;19;20014;-80
2023/12/06 12:24:51;;;;;;;2.08;1.98;;;;;;;2.53;100.00;98069.69;15274969;19;20425;-80
2023/12/06 12:30:16;;;;;;;2.25;2.05;;;;;;;2.49;100.00;98074.38;15278286;19;20011;-81
2023/12/06 12:35:43;;;;;;;2.80;2.53;;;;;;;2.41;100.00;98090.91;15274381;19;20493;-81
2023/12/06 12:41:10;;;;;;;2.85;2.65;;;;;;;2.27;100.00;98086.66;15282294;19;21037;-81
2023/12/06 12:46:36;;;;;;;3.58;3.28;;;;;;;2.19;100.00;98083.75;15281066;19;20082;-81
2023/12/06 12:52:13;;;;;;;3.60;3.30;;;;;;;2.09;100.00;98094.22;15278803;19;20011;-79
2023/12/06 12:57:42;;;;;;;3.80;3.50;;;;;;;1.98;100.00;98092.41;15282418;19;20028;-79
2023/12/06 13:03:07;;;;;;;3.83;3.45;;;;;;;1.92;100.00;98092.00;15282858;19;20812;-80
2023/12/06 13:08:36;;;;;;;3.88;3.58;;;;;;;1.84;100.00;98096.06;15288831;19;20018;-80
2023/12/06 13:13:54;;;;;;;3.85;3.55;;;;;;;1.79;100.00;98100.91;15285192;19;20093;-81
2023/12/06 13:19:19;;;;;;;4.43;4.03;;;;;;;1.77;100.00;98097.50;15281360;19;20035;-80
2023/12/06 13:24:46;;;;;;;4.70;4.30;;;;;;;1.75;100.00;98107.38;15275440;19;20558;-79
2023/12/06 13:30:13;;;;;;;4.70;4.30;;;;;;;1.74;100.00;98116.31;15279299;19;20042;-78
2023/12/06 13:35:37;;;;;;;4.78;4.32;;;;;;;1.74;100.00;98110.16;15284440;19;20086;-78
2023/12/06 13:41:05;;;;;;;4.85;3.90;;;;;;;1.74;100.00;98123.44;15284871;19;20021;-78
2023/12/06 13:46:30;;;;;;;4.40;4.00;;;;;;;1.72;100.00;98134.16;15285787;19;20019;-78
2023/12/06 13:51:55;;;;;;;3.60;3.30;;;;;;;1.70;100.00;98138.75;15291697;19;20089;-78
2023/12/06 13:57:23;;;;;;;3.63;3.33;;;;;;;1.67;100.00;98137.16;15282283;19;20082;-78
2023/12/06 14:02:50;;;;;;;4.03;3.72;;;;;;;1.64;100.00;98152.47;15281823;19;20017;-79
2023/12/06 14:08:24;;;;;;;3.80;3.50;;;;;;;1.57;100.00;98152.06;15289085;19;20015;-81
2023/12/06 14:13:52;;;;;;;5.53;5.03;;;;;;;1.53;100.00;98156.75;15286989;19;20011;-80
2023/12/06 14:19:16;;;;;;;6.55;5.95;;;;;;;1.50;100.00;98156.13;15306422;19;20010;-80
2023/12/06 14:24:47;;;;;;;6.43;5.82;;;;;;;1.43;100.00;98163.69;15306276;19;20078;-79
2023/12/06 14:30:16;;;;;;;6.05;5.55;;;;;;;1.35;100.00;98169.53;15325605;19;20029;-80
2023/12/06 14:35:40;;;;;;;6.93;6.32;;;;;;;1.27;100.00;98173.69;15331241;19;20007;-79
2023/12/06 14:41:06;;;;;;;6.57;5.97;;;;;;;1.15;100.00;98186.84;15324912;19;20029;-80
2023/12/06 14:46:33;;;;;;;7.00;6.40;;;;;;;1.05;100.00;98197.28;15307713;19;20018;-81
2023/12/06 14:51:59;;;;;;;6.20;5.65;;;;;;;0.96;100.00;98189.09;15311615;19;20019;-80
2023/12/06 14:57:24;;;;;;;6.65;5.95;;;;;;;0.87;100.00;98207.38;15291858;19;20010;-79
2023/12/06 15:02:53;;;;;;;7.28;6.57;;;;;;;0.83;100.00;98216.47;15277628;19;20081;-77
2023/12/06 15:08:24;;;;;;;8.93;8.02;;;;;;;0.79;100.00;98227.41;15260002;19;20018;-79
2023/12/06 15:13:49;;;;;;;7.50;6.80;;;;;;;0.73;100.00;98231.31;15283624;19;20371;-78
2023/12/06 15:19:17;;;;;;;5.10;4.60;;;;;;;0.67;100.00;98234.38;15285728;19;20366;-79
2023/12/06 15:25:00;;;;;;;5.85;5.35;;;;;;;0.56;100.00;98249.19;15275694;19;20050;-79
2023/12/06 15:30:26;;;;;;;6.63;6.03;;;;;;;0.52;100.00;98252.16;15280068;19;20014;-79
2023/12/06 15:35:55;;;;;;;6.40;5.88;;;;;;;0.45;100.00;98257.00;15278700;19;20018;-79
2023/12/06 15:41:19;;;;;;;5.90;5.40;;;;;;;0.42;100.00;98265.16;15281491;19;20011;-80
2023/12/06 15:46:54;;;;;;;6.93;6.32;;;;;;;0.39;100.00;98257.44;15307319;19;20086;-79
2023/12/06 15:52:29;;;;;;;6.78;6.18;;;;;;;0.38;100.00;98269.81;15283954;19;20024;-79
2023/12/06 15:57:54;;;;;;;6.68;5.97;;;;;;;0.35;100.00;98278.00;15284694;19;20014;-79
2023/12/06 16:03:18;;;;;;;6.80;6.20;;;;;;;0.36;100.00;98297.38;15280830;19;20013;-80
2023/12/06 16:08:52;;;;;;;6.55;5.95;;;;;;;0.36;100.00;98297.38;15277930;19;20014;-79
2023/12/06 16:14:20;;;;;;;6.72;6.13;;;;;;;0.40;100.00;98304.19;15284716;19;20074;-80
2023/12/06 16:19:45;;;;;;;7.45;6.75;;;;;;;0.41;100.00;98308.53;15284005;19;20018;-80
2023/12/06 16:25:13;;;;;;;6.50;6.00;;;;;;;0.42;100.00;98318.16;15285155;19;20014;-79
2023/12/06 16:30:38;;;;;;;7.30;6.68;;;;;;;0.45;100.00;98333.88;15281794;19;20043;-78
2023/12/06 16:36:03;;;;;;;5.68;5.18;;;;;;;0.49;100.00;98340.69;15290684;19;20034;-81
2023/12/06 16:41:30;;;;;;;5.57;5.07;;;;;;;0.52;100.00;98356.41;15290179;19;20003;-80
2023/12/06 16:46:56;;;;;;;4.80;4.40;;;;;;;0.53;100.00;98355.44;15300064;19;20430;-80
2023/12/06 16:52:22;;;;;;;6.65;5.55;;;;;;;0.56;100.00;98357.06;15283762;19;20024;-79
2023/12/06 16:57:50;;;;;;;6.25;5.75;;;;;;;0.56;100.00;98368.50;15288698;19;20031;-77
2023/12/06 17:03:14;;;;;;;6.05;5.55;;;;;;;0.55;100.00;98364.13;15290583;19;20046;-78
2023/12/06 17:08:45;;;;;;;6.82;6.22;;;;;;;0.55;100.00;98366.78;15283560;19;20372;-79
2023/12/06 17:14:14;;;;;;;7.13;6.53;;;;;;;0.53;100.00;98379.28;15298275;19;20022;-77
2023/12/06 17:19:38;;;;;;;6.90;6.30;;;;;;;0.55;100.00;98387.16;15269427;19;20032;-77
2023/12/06 17:25:04;;;;;;;6.70;6.07;;;;;;;0.55;100.00;98395.94;15290685;19;20463;-77
2023/12/06 17:30:33;;;;;;;6.70;6.13;;;;;;;0.56;100.00;98395.00;15291239;19;20494;-77
2023/12/06 17:35:59;;;;;;;5.55;5.05;;;;;;;0.56;100.00;98397.66;15289494;19;20025;-77
2023/12/06 17:41:35;;;;;;;6.10;5.60;;;;;;;0.58;100.00;98408.19;15304222;19;20011;-77
2023/12/06 17:47:03;;;;;;;6.25;5.68;;;;;;;0.58;100.00;98411.66;15299565;19;20021;-78
2023/12/06 17:52:27;;;;;;;6.25;5.72;;;;;;;0.59;100.00;98416.03;15297451;19;20010;-77
2023/12/06 17:57:52;;;;;;;6.57;5.97;;;;;;;0.61;100.00;98430.03;15291675;19;20330;-78
2023/12/06 18:03:19;;;;;;;5.88;5.38;;;;;;;0.61;100.00;98434.47;15307846;19;20022;-81
2023/12/06 18:08:51;;;;;;;6.60;6.00;;;;;;;0.63;100.00;98447.66;15323997;19;20793;-79
2023/12/06 18:14:17;;;;;;;6.80;6.18;;;;;;;0.66;100.00;98463.34;15316459;19;20075;-80
2023/12/06 18:19:44;;;;;;;7.60;6.90;;;;;;;0.65;100.00;98457.19;15316952;19;20027;-80
2023/12/06 18:25:09;;;;;;;8.10;7.40;;;;;;;0.64;100.00;98467.91;15322341;19;20485;-79
2023/12/06 18:30:38;;;;;;;8.00;7.30;;;;;;;0.62;100.00;98462.69;15313827;19;20046;-80
2023/12/06 18:36:08;;;;;;;8.02;7.32;;;;;;;0.63;100.00;98474.16;15306123;19;20240;-79
2023/12/06 18:41:33;;;;;;;8.48;7.68;;;;;;;0.65;100.00;98488.19;15312210;19;20750;-79
2023/12/06 18:46:59;;;;;;;8.57;7.82;;;;;;;0.65;100.00;98489.00;15308062;19;20022;-77
2023/12/06 18:52:27;;;;;;;9.25;8.45;;;;;;;0.65;100.00;98494.31;15309454;19;20010;-77
2023/12/06 18:57:55;;;;;;;9.95;9.05;;;;;;;0.64;100.00;98494.44;15307256;19;20011;-78
2023/12/06 19:03:19;;;;;;;10.45;9.43;;;;;;;0.64;100.00;98499.72;15308670;19;20411;-78
2023/12/06 19:08:53;;;;;;;11.10;10.10;;;;;;;0.66;100.00;98511.06;15296291;19;20516;-78
2023/12/06 19:14:18;;;;;;;10.10;9.13;;;;;;;0.68;100.00;98503.88;15293550;19;20077;-79
2023/12/06 19:19:42;;;;;;;9.32;8.52;;;;;;;0.70;100.00;98513.44;15284044;19;20016;-78
2023/12/06 19:25:12;;;;;;;7.97;7.30;;;;;;;0.76;100.00;98521.00;15272214;19;20014;-79
2023/12/06 19:30:36;;;;;;;14.02;12.63;;;;;;;0.77;100.00;98524.50;15269462;19;20027;-77
2023/12/06 19:36:01;;;;;;;8.88;7.53;;;;;;;0.80;100.00;98529.63;15273320;19;20002;-77
2023/12/06 19:41:28;;;;;;;8.80;8.00;;;;;;;0.83;100.00;98536.53;15270142;19;20018;-76
2023/12/06 19:46:53;;;;;;;8.45;7.75;;;;;;;0.83;100.00;98533.88;15274209;19;20014;-77
2023/12/06 19:52:17;;;;;;;9.18;8.27;;;;;;;0.84;100.00;98541.75;15272209;19;20014;-76
2023/12/06 19:57:47;;;;;;;9.00;8.10;;;;;;;0.87;100.00;98551.31;15277352;19;20042;-76
2023/12/06 20:03:12;;;;;;;8.90;8.10;;;;;;;0.87;100.00;98552.16;15274732;19;20728;-76
2023/12/06 20:08:43;;;;;;;9.00;8.20;;;;;;;0.88;100.00;98548.53;15269050;19;20021;-76
2023/12/06 20:14:11;;;;;;;9.02;8.13;;;;;;;0.92;100.00;98559.84;15276103;19;20018;-81
2023/12/06 20:19:37;;;;;;;9.10;8.25;;;;;;;0.96;100.00;98571.94;15271393;19;20050;-76
2023/12/06 20:25:02;;;;;;;8.95;8.15;;;;;;;0.99;100.00;98573.56;15273078;19;20098;-80
2023/12/06 20:30:30;;;;;;;8.50;7.70;;;;;;;1.00;100.00;98573.44;15282546;19;20011;-81
2023/12/06 20:35:55;;;;;;;8.50;7.70;;;;;;;1.04;100.00;98582.06;15280988;19;20695;-81
2023/12/06 20:41:19;;;;;;;9.13;8.27;;;;;;;1.16;100.00;98591.06;15281007;19;20018;-80
2023/12/06 20:46:49;;;;;;;8.27;6.93;;;;;;;1.28;100.00;98605.34;15281572;19;20468;-81
2023/12/06 20:52:14;;;;;;;8.15;7.35;;;;;;;1.38;100.00;98611.75;15286281;19;20007;-77
2023/12/06 20:57:39;;;;;;;7.47;6.78;;;;;;;1.45;100.00;98610.44;15283025;19;20011;-78
2023/12/06 21:03:07;;;;;;;7.28;6.60;;;;;;;1.44;100.00;98608.72;15286348;19;20011;-80
2023/12/06 21:08:39;;;;;;;6.68;6.05;;;;;;;1.47;100.00;98605.84;15287592;19;20019;-81
2023/12/06 21:14:05;;;;;;;6.22;5.63;;;;;;;1.54;100.00;98606.31;15281004;19;20014;-79
2023/12/06 21:19:32;;;;;;;6.90;6.30;;;;;;;1.61;100.00;98610.28;15274268;19;20028;-80
2023/12/06 21:24:56;;;;;;;7.15;6.53;;;;;;;1.61;100.00;98615.59;15272566;19;20576;-79
2023/12/06 21:30:21;;;;;;;7.03;6.32;;;;;;;1.59;100.00;98606.03;15276599;19;20070;-80
2023/12/06 21:35:49;;;;;;;6.57;5.97;;;;;;;1.54;100.00;98620.47;15281493;19;20006;-79
2023/12/06 21:41:15;;;;;;;6.88;6.28;;;;;;;1.53;100.00;98624.06;15289827;19;20058;-79
2023/12/06 21:46:40;;;;;;;7.95;7.25;;;;;;;1.49;100.00;98627.84;15293188;19;20007;-79
2023/12/06 21:52:07;;;;;;;8.40;7.53;;;;;;;1.45;100.00;98630.81;15289490;19;20015;-78
2023/12/06 21:57:33;;;;;;;8.48;7.68;;;;;;;1.42;100.00;98631.88;15294528;19;20085;-80
2023/12/06 22:03:00;;;;;;;9.15;8.27;;;;;;;1.41;100.00;98630.16;15292237;19;20480;-82
2023/12/06 22:08:28;;;;;;;8.93;8.13;;;;;;;1.41;100.00;98637.28;15294588;19;20446;-81
2023/12/06 22:13:53;;;;;;;8.55;7.65;;;;;;;1.39;100.00;98640.00;15300604;19;20010;-82
2023/12/06 22:19:17;;;;;;;9.10;8.18;;;;;;;1.39;100.00;98645.31;15298035;19;20363;-81
2023/12/06 22:24:45;;;;;;;8.80;8.00;;;;;;;1.37;100.00;98649.88;15293308;19;20018;-79
2023/12/06 22:30:11;;;;;;;8.43;7.63;;;;;;;1.35;100.00;98647.31;15296492;19;20006;-81
2023/12/06 22:35:37;;;;;;;8.93;8.07;;;;;;;1.35;100.00;98657.94;15286106;19;20055;-80
2023/12/06 22:41:05;;;;;;;9.27;8.38;;;;;;;1.35;100.00;98663.25;15299475;19;20031;-81
2023/12/06 22:46:29;;;;;;;9.73;8.90;;;;;;;1.35;100.00;98665.06;15294390;19;20025;-79
2023/12/06 22:51:55;;;;;;;9.93;8.98;;;;;;;1.35;100.00;98668.56;15289868;19;20031;-79
2023/12/06 22:57:22;;;;;;;9.75;8.57;;;;;;;1.33;100.00;98677.59;15292967;19;20010;-80
2023/12/06 23:02:47;;;;;;;9.68;8.77;;;;;;;1.34;100.00;98674.81;15288076;19;20031;-80
2023/12/06 23:08:19;;;;;;;10.05;9.10;;;;;;;1.34;100.00;98687.25;15287174;19;20024;-81
2023/12/06 23:13:48;;;;;;;9.88;8.98;;;;;;;1.34;100.00;98687.25;15291854;19;20042;-80
2023/12/06 23:19:13;;;;;;;10.70;9.70;;;;;;;1.34;100.00;98690.75;15298535;19;20315;-79
2023/12/06 23:24:37;;;;;;;9.75;8.85;;;;;;;1.35;100.00;98688.97;15017558;19;5000913;-78
2023/12/06 23:30:05;;;;;;;10.32;9.25;;;;;;;1.33;100.00;98680.25;15297642;19;20355;-79
2023/12/06 23:35:29;;;;;;;10.82;9.77;;;;;;;1.30;100.00;98685.72;15304654;19;20025;-80
2023/12/06 23:40:53;;;;;;;10.73;9.55;;;;;;;1.30;100.00;98689.22;15311485;19;20031;-80
2023/12/06 23:46:21;;;;;;;10.82;9.73;;;;;;;1.30;100.00;98691.03;15308422;19;20035;-79
2023/12/06 23:51:45;;;;;;;10.25;9.20;;;;;;;1.27;100.00;98696.53;15307538;19;20469;-79
2023/12/06 23:57:10;;;;;;;11.43;10.27;;;;;;;1.28;100.00;98700.91;15304759;19;20015;-78
